createdAt,value
2022-09-27T00:03:19.225Z,3.00
2022-09-27T00:08:20.794Z,3.60
2022-09-27T00:13:22.491Z,4.25
2022-09-27T00:18:24.060Z,4.30
2022-09-27T00:23:25.626Z,4.10
2022-09-27T00:28:28.061Z,3.92
2022-09-27T00:33:30.036Z,4.78
2022-09-27T00:38:31.612Z,4.85
2022-09-27T00:43:45.605Z,5.72
2022-09-27T00:48:48.344Z,5.43
2022-09-27T00:53:53.501Z,5.13
2022-09-27T00:59:01.631Z,4.70
2022-09-27T01:04:08.618Z,5.13
2022-09-27T01:09:11.805Z,3.50
2022-09-27T01:14:40.995Z,3.38
2022-09-27T01:20:19.830Z,3.50
2022-09-27T01:26:06.172Z,3.30
2022-09-27T01:31:28.032Z,4.10
2022-09-27T01:36:54.201Z,3.67
2022-09-27T01:42:05.638Z,3.05
2022-09-27T01:52:38.966Z,2.78
2022-09-27T01:57:46.200Z,2.50
2022-09-27T02:03:05.190Z,2.13
2022-09-27T02:08:48.256Z,1.98
2022-09-27T02:14:15.503Z,2.58
2022-09-27T02:20:07.850Z,2.67
2022-09-27T02:25:23.744Z,2.58
2022-09-27T02:30:26.683Z,3.80
2022-09-27T02:35:35.970Z,5.30
2022-09-27T02:40:47.286Z,5.78
2022-09-27T02:46:11.551Z,6.47
2022-09-27T02:51:18.494Z,6.43
2022-09-27T02:56:48.614Z,6.60
2022-09-27T03:02:18.509Z,6.63
2022-09-27T03:07:35.252Z,6.80
2022-09-27T03:12:36.905Z,6.35
2022-09-27T03:17:38.561Z,5.45
2022-09-27T03:22:58.672Z,6.63
2022-09-27T03:28:00.311Z,4.53
2022-09-27T03:33:01.996Z,4.15
2022-09-27T03:38:20.469Z,3.85
2022-09-27T03:43:22.208Z,3.47
2022-09-27T03:48:27.908Z,2.65
2022-09-27T03:53:30.143Z,2.67
2022-09-27T03:58:31.832Z,2.55
2022-09-27T04:03:33.588Z,2.80
2022-09-27T04:08:54.132Z,2.30
2022-09-27T04:13:58.761Z,2.58
2022-09-27T04:19:01.679Z,2.08
2022-09-27T04:24:10.920Z,1.92
2022-09-27T04:29:14.220Z,1.90
2022-09-27T04:34:45.857Z,2.15
2022-09-27T04:39:49.312Z,2.22
2022-09-27T04:44:50.915Z,2.50
2022-09-27T04:49:52.517Z,2.63
2022-09-27T04:54:54.289Z,2.63
2022-09-27T04:59:56.088Z,3.00
2022-09-27T05:04:59.245Z,2.75
2022-09-27T05:10:04.873Z,2.80
2022-09-27T05:15:07.204Z,3.08
2022-09-27T05:20:27.643Z,2.70
2022-09-27T05:25:35.072Z,1.52
2022-09-27T05:30:37.189Z,2.17
2022-09-27T05:35:45.813Z,2.03
2022-09-27T05:40:50.194Z,2.10
2022-09-27T05:45:55.130Z,1.80
2022-09-27T05:50:57.965Z,2.25
2022-09-27T05:56:04.371Z,2.22
2022-09-27T06:01:27.637Z,2.00
2022-09-27T06:06:48.428Z,2.00
2022-09-27T06:11:51.065Z,1.92
2022-09-27T06:16:54.991Z,2.08
2022-09-27T06:21:59.438Z,1.83
2022-09-27T06:27:09.509Z,1.80
2022-09-27T06:32:20.843Z,1.55
2022-09-27T06:37:30.103Z,1.40
2022-09-27T06:42:33.473Z,1.63
2022-09-27T06:47:50.737Z,1.70
2022-09-27T06:53:01.293Z,1.52
2022-09-27T06:58:22.242Z,1.65
2022-09-27T07:03:44.207Z,1.65
2022-09-27T07:09:12.077Z,2.40
2022-09-27T07:14:14.138Z,2.08
2022-09-27T07:19:16.043Z,2.50
2022-09-27T07:24:18.350Z,2.22
2022-09-27T07:29:20.160Z,1.80
2022-09-27T07:34:23.691Z,1.65
2022-09-27T07:39:26.730Z,1.75
2022-09-27T07:44:28.344Z,2.47
2022-09-27T07:49:45.654Z,1.73
2022-09-27T07:55:04.675Z,1.42
2022-09-27T08:00:16.023Z,1.50
2022-09-27T08:05:20.248Z,1.60
2022-09-27T08:10:21.860Z,1.77
2022-09-27T08:15:23.823Z,1.48
2022-09-27T08:20:26.236Z,1.60
2022-09-27T08:25:55.051Z,1.50
2022-09-27T08:31:25.384Z,1.20
2022-09-27T08:36:30.701Z,1.03
2022-09-27T08:41:41.686Z,1.17
2022-09-27T08:47:06.908Z,1.23
2022-09-27T08:52:27.660Z,1.10
2022-09-27T08:57:29.686Z,1.20
2022-09-27T09:02:32.208Z,1.70
2022-09-27T09:07:43.203Z,1.40
2022-09-27T09:13:02.417Z,1.42
2022-09-27T09:19:01.180Z,1.10
2022-09-27T09:24:27.074Z,1.25
2022-09-27T09:29:36.191Z,1.63
2022-09-27T09:34:41.919Z,0.88
2022-09-27T09:40:16.003Z,0.82
2022-09-27T09:45:34.971Z,0.80
2022-09-27T09:50:46.918Z,0.57
2022-09-27T09:56:05.506Z,0.80
2022-09-27T10:01:28.460Z,0.80
2022-09-27T10:06:31.684Z,0.75
2022-09-27T10:11:42.082Z,0.90
2022-09-27T10:16:59.378Z,0.75
2022-09-27T10:22:14.199Z,0.73
2022-09-27T10:27:16.220Z,0.80
2022-09-27T10:32:36.855Z,0.90
2022-09-27T10:38:20.422Z,0.93
2022-09-27T10:43:34.393Z,1.02
2022-09-27T10:49:34.213Z,0.90
2022-09-27T10:54:41.241Z,1.30
2022-09-27T10:59:45.752Z,0.82
2022-09-27T11:05:12.537Z,0.68
2022-09-27T11:10:28.725Z,0.70
2022-09-27T11:15:31.421Z,0.88
2022-09-27T11:20:51.215Z,0.50
2022-09-27T11:26:36.848Z,0.50
2022-09-27T11:32:02.833Z,0.63
2022-09-27T11:37:22.404Z,0.50
2022-09-27T11:42:41.468Z,0.50
2022-09-27T11:48:16.738Z,0.70
2022-09-27T11:53:52.198Z,0.55
2022-09-27T11:59:24.415Z,1.50
2022-09-27T12:04:57.882Z,0.88
2022-09-27T12:10:05.013Z,0.80
2022-09-27T12:15:24.777Z,0.88
2022-09-27T12:20:33.551Z,0.40
2022-09-27T12:25:41.813Z,0.60
2022-09-27T12:31:24.443Z,0.90
2022-09-27T12:36:28.580Z,0.85
2022-09-27T12:41:36.140Z,0.70
2022-09-27T12:47:27.792Z,0.50
2022-09-27T12:52:35.655Z,0.57
2022-09-27T12:57:50.122Z,0.43
2022-09-27T13:03:26.921Z,0.75
2022-09-27T13:09:01.586Z,1.10
2022-09-27T13:14:10.365Z,0.70
2022-09-27T13:19:40.030Z,0.60
2022-09-27T13:24:46.775Z,0.70
2022-09-27T13:30:13.118Z,1.15
2022-09-27T13:35:24.898Z,1.38
2022-09-27T13:40:41.962Z,1.20
2022-09-27T13:45:59.513Z,0.65
2022-09-27T13:51:18.106Z,0.70
2022-09-27T13:56:46.537Z,1.10
2022-09-27T14:01:53.218Z,0.70
2022-09-27T14:07:03.819Z,0.40
2022-09-27T14:12:12.222Z,0.70
2022-09-27T14:17:17.594Z,0.60
2022-09-27T14:22:28.019Z,0.80
2022-09-27T14:27:38.706Z,0.70
2022-09-27T14:33:29.825Z,0.60
2022-09-27T14:38:39.333Z,0.70
2022-09-27T14:43:56.246Z,0.77
2022-09-27T14:48:59.258Z,0.70
2022-09-27T14:54:04.206Z,0.60
2022-09-27T14:59:23.140Z,0.60
2022-09-27T15:04:24.946Z,0.77
2022-09-27T15:09:29.758Z,0.90
2022-09-27T15:14:41.003Z,0.70
2022-09-27T15:20:22.560Z,0.90
2022-09-27T15:25:36.609Z,0.70
2022-09-27T15:30:41.123Z,0.98
2022-09-27T15:35:55.516Z,0.95
2022-09-27T15:41:00.320Z,1.15
2022-09-27T15:46:05.248Z,1.23
2022-09-27T15:51:40.378Z,0.90
2022-09-27T15:56:42.373Z,1.30
2022-09-27T16:01:44.067Z,1.35
2022-09-27T16:06:46.066Z,0.77
2022-09-27T16:11:49.481Z,0.80
2022-09-27T16:16:54.529Z,0.80
2022-09-27T16:21:56.212Z,0.90
2022-09-27T16:26:58.421Z,1.30
2022-09-27T16:32:00.070Z,1.17
2022-09-27T16:37:04.788Z,1.00
2022-09-27T16:42:07.684Z,1.00
2022-09-27T16:47:09.543Z,0.70
2022-09-27T16:52:11.133Z,1.10
2022-09-27T16:57:12.856Z,1.70
2022-09-27T17:02:14.578Z,2.05
2022-09-27T17:07:16.454Z,1.40
2022-09-27T17:12:18.077Z,1.05
2022-09-27T17:17:19.934Z,1.48
2022-09-27T17:22:21.538Z,1.83
2022-09-27T17:27:25.987Z,5.22
2022-09-27T17:32:27.680Z,2.40
2022-09-27T17:37:29.620Z,2.20
2022-09-27T17:42:31.226Z,1.90
2022-09-27T17:47:51.516Z,1.77
2022-09-27T17:52:53.886Z,1.90
2022-09-27T17:57:55.497Z,2.10
2022-09-27T18:02:57.135Z,1.83
2022-09-27T18:07:59.092Z,2.35
2022-09-27T18:13:00.869Z,2.25
2022-09-27T18:18:05.045Z,2.10
2022-09-27T18:23:06.691Z,2.22
2022-09-27T18:28:08.821Z,2.70
2022-09-27T18:33:10.374Z,2.38
2022-09-27T18:38:12.002Z,3.17
2022-09-27T18:43:13.665Z,2.58
2022-09-27T18:48:15.570Z,2.13
2022-09-27T18:53:17.218Z,2.53
2022-09-27T18:58:18.884Z,2.13
2022-09-27T19:03:20.460Z,2.50
2022-09-27T19:08:22.056Z,2.70
2022-09-27T19:13:28.274Z,2.10
2022-09-27T19:18:32.304Z,2.67
2022-09-27T19:23:34.071Z,2.58
2022-09-27T19:28:38.502Z,2.70
2022-09-27T19:33:40.785Z,2.80
2022-09-27T19:38:42.628Z,2.33
2022-09-27T19:43:49.834Z,2.90
2022-09-27T19:48:51.972Z,2.00
2022-09-27T19:53:54.563Z,2.30
2022-09-27T19:58:56.183Z,2.40
2022-09-27T20:03:59.676Z,2.35
2022-09-27T20:09:03.045Z,2.40
2022-09-27T20:14:04.677Z,2.20
2022-09-27T20:19:06.330Z,2.30
2022-09-27T20:24:07.980Z,2.05
2022-09-27T20:29:10.868Z,2.38
2022-09-27T20:34:14.548Z,2.38
2022-09-27T20:39:16.761Z,2.33
2022-09-27T20:44:20.254Z,2.60
2022-09-27T20:49:21.906Z,2.45
2022-09-27T20:54:23.619Z,2.38
2022-09-27T20:59:25.248Z,2.28
2022-09-27T21:04:26.860Z,2.17
2022-09-27T21:09:28.696Z,1.90
2022-09-27T21:14:30.318Z,2.38
2022-09-27T21:19:31.997Z,2.55
2022-09-27T21:24:33.739Z,2.08
2022-09-27T21:29:35.411Z,2.50
2022-09-27T21:34:37.076Z,3.45
2022-09-27T21:39:38.748Z,3.13
2022-09-27T21:44:40.334Z,3.28
2022-09-27T21:49:42.039Z,4.88
2022-09-27T21:54:43.673Z,5.07
2022-09-27T21:59:45.589Z,5.30
2022-09-27T22:04:49.208Z,5.78
2022-09-27T22:09:50.769Z,6.60
2022-09-27T22:14:52.612Z,7.35
2022-09-27T22:19:54.182Z,7.45
2022-09-27T22:24:55.915Z,8.25
2022-09-27T22:29:57.650Z,8.25
2022-09-27T22:34:59.217Z,7.75
2022-09-27T22:40:01.089Z,7.57
2022-09-27T22:45:03.211Z,7.00
2022-09-27T22:50:05.210Z,7.45
2022-09-27T22:55:07.201Z,7.35
2022-09-27T23:00:09.660Z,7.30
2022-09-27T23:05:11.318Z,7.15
2022-09-27T23:10:12.993Z,7.40
2022-09-27T23:15:14.919Z,7.10
2022-09-27T23:20:16.871Z,7.70
2022-09-27T23:25:18.764Z,6.82
2022-09-27T23:30:22.530Z,6.68
2022-09-27T23:35:24.349Z,6.70
2022-09-27T23:40:26.167Z,6.97
2022-09-27T23:45:28.493Z,6.35
2022-09-27T23:50:32.299Z,6.28
2022-09-27T23:55:34.073Z,6.80
